sensor_id;sensor_type;location;lat;lon;timestamp;P1;durP1;ratioP1;P2;durP2;ratioP2
55758;SDS011;41678;52.126;20.664;2023-02-12T00:03:56;5.15;;;1.20;;
55758;SDS011;41678;52.126;20.664;2023-02-12T00:09:15;3.53;;;1.10;;
55758;SDS011;41678;52.126;20.664;2023-02-12T00:14:38;9.02;;;1.67;;
55758;SDS011;41678;52.126;20.664;2023-02-12T00:19:57;3.65;;;1.20;;
55758;SDS011;41678;52.126;20.664;2023-02-12T00:25:17;2.88;;;0.98;;
55758;SDS011;41678;52.126;20.664;2023-02-12T00:30:37;0.88;;;0.50;;
55758;SDS011;41678;52.126;20.664;2023-02-12T00:35:56;1.00;;;0.38;;
55758;SDS011;41678;52.126;20.664;2023-02-12T00:41:16;2.35;;;0.70;;
55758;SDS011;41678;52.126;20.664;2023-02-12T00:46:36;3.35;;;0.88;;
55758;SDS011;41678;52.126;20.664;2023-02-12T00:51:55;4.05;;;0.95;;
55758;SDS011;41678;52.126;20.664;2023-02-12T00:57:15;5.70;;;1.20;;
55758;SDS011;41678;52.126;20.664;2023-02-12T01:02:34;5.00;;;1.10;;
55758;SDS011;41678;52.126;20.664;2023-02-12T01:07:54;4.90;;;1.30;;
55758;SDS011;41678;52.126;20.664;2023-02-12T01:13:14;3.20;;;0.98;;
55758;SDS011;41678;52.126;20.664;2023-02-12T01:18:38;4.65;;;1.73;;
55758;SDS011;41678;52.126;20.664;2023-02-12T01:23:59;8.48;;;0.80;;
55758;SDS011;41678;52.126;20.664;2023-02-12T01:29:19;9.23;;;1.58;;
55758;SDS011;41678;52.126;20.664;2023-02-12T01:34:41;3.33;;;1.17;;
55758;SDS011;41678;52.126;20.664;2023-02-12T01:40:01;3.70;;;0.85;;
55758;SDS011;41678;52.126;20.664;2023-02-12T01:50:55;2.33;;;0.80;;
55758;SDS011;41678;52.126;20.664;2023-02-12T01:56:15;3.10;;;1.10;;
55758;SDS011;41678;52.126;20.664;2023-02-12T02:01:36;8.75;;;1.00;;
55758;SDS011;41678;52.126;20.664;2023-02-12T02:12:18;2.53;;;1.10;;
55758;SDS011;41678;52.126;20.664;2023-02-12T02:23:36;2.38;;;0.80;;
55758;SDS011;41678;52.126;20.664;2023-02-12T02:34:41;3.90;;;1.00;;
55758;SDS011;41678;52.126;20.664;2023-02-12T02:40:26;2.67;;;0.80;;
55758;SDS011;41678;52.126;20.664;2023-02-12T02:45:52;1.90;;;0.70;;
55758;SDS011;41678;52.126;20.664;2023-02-12T02:51:22;1.90;;;0.63;;
55758;SDS011;41678;52.126;20.664;2023-02-12T02:56:47;3.78;;;0.65;;
55758;SDS011;41678;52.126;20.664;2023-02-12T03:02:27;1.80;;;0.75;;
55758;SDS011;41678;52.126;20.664;2023-02-12T03:13:19;4.72;;;1.02;;
55758;SDS011;41678;52.126;20.664;2023-02-12T03:24:50;4.75;;;0.93;;
55758;SDS011;41678;52.126;20.664;2023-02-12T03:30:15;2.72;;;0.88;;
55758;SDS011;41678;52.126;20.664;2023-02-12T03:35:45;5.22;;;1.30;;
55758;SDS011;41678;52.126;20.664;2023-02-12T03:41:19;3.25;;;0.77;;
55758;SDS011;41678;52.126;20.664;2023-02-12T03:47:03;13.57;;;1.17;;
55758;SDS011;41678;52.126;20.664;2023-02-12T03:52:34;3.05;;;1.10;;
55758;SDS011;41678;52.126;20.664;2023-02-12T03:57:57;1.92;;;0.75;;
55758;SDS011;41678;52.126;20.664;2023-02-12T04:03:19;4.80;;;1.17;;
55758;SDS011;41678;52.126;20.664;2023-02-12T04:08:51;7.35;;;0.80;;
55758;SDS011;41678;52.126;20.664;2023-02-12T04:14:33;7.80;;;1.77;;
55758;SDS011;41678;52.126;20.664;2023-02-12T04:42:46;3.55;;;1.05;;
55758;SDS011;41678;52.126;20.664;2023-02-12T04:48:07;3.95;;;1.08;;
55758;SDS011;41678;52.126;20.664;2023-02-12T04:53:27;3.78;;;1.13;;
55758;SDS011;41678;52.126;20.664;2023-02-12T04:58:47;3.45;;;1.10;;
55758;SDS011;41678;52.126;20.664;2023-02-12T05:04:06;10.13;;;1.52;;
55758;SDS011;41678;52.126;20.664;2023-02-12T05:09:27;1.95;;;0.77;;
55758;SDS011;41678;52.126;20.664;2023-02-12T05:14:46;4.22;;;1.33;;
55758;SDS011;41678;52.126;20.664;2023-02-12T05:20:05;6.90;;;1.63;;
55758;SDS011;41678;52.126;20.664;2023-02-12T05:25:26;6.95;;;1.65;;
55758;SDS011;41678;52.126;20.664;2023-02-12T05:30:45;3.78;;;1.50;;
55758;SDS011;41678;52.126;20.664;2023-02-12T05:36:15;3.20;;;1.02;;
55758;SDS011;41678;52.126;20.664;2023-02-12T05:41:37;6.78;;;1.52;;
55758;SDS011;41678;52.126;20.664;2023-02-12T05:46:57;3.90;;;1.33;;
55758;SDS011;41678;52.126;20.664;2023-02-12T05:52:16;3.75;;;1.25;;
55758;SDS011;41678;52.126;20.664;2023-02-12T05:57:36;5.07;;;1.75;;
55758;SDS011;41678;52.126;20.664;2023-02-12T06:02:55;3.38;;;1.10;;
55758;SDS011;41678;52.126;20.664;2023-02-12T06:08:15;4.68;;;1.50;;
55758;SDS011;41678;52.126;20.664;2023-02-12T06:13:34;3.08;;;0.93;;
55758;SDS011;41678;52.126;20.664;2023-02-12T06:18:54;3.55;;;1.23;;
55758;SDS011;41678;52.126;20.664;2023-02-12T06:24:15;3.42;;;1.10;;
55758;SDS011;41678;52.126;20.664;2023-02-12T06:29:35;5.90;;;1.30;;
55758;SDS011;41678;52.126;20.664;2023-02-12T06:34:55;10.82;;;1.35;;
55758;SDS011;41678;52.126;20.664;2023-02-12T06:40:14;4.25;;;1.55;;
55758;SDS011;41678;52.126;20.664;2023-02-12T06:45:34;22.17;;;6.57;;
55758;SDS011;41678;52.126;20.664;2023-02-12T06:50:54;7.78;;;2.80;;
55758;SDS011;41678;52.126;20.664;2023-02-12T06:56:13;6.18;;;1.58;;
55758;SDS011;41678;52.126;20.664;2023-02-12T07:01:33;4.55;;;1.30;;
55758;SDS011;41678;52.126;20.664;2023-02-12T07:06:52;4.35;;;1.88;;
55758;SDS011;41678;52.126;20.664;2023-02-12T07:12:11;5.13;;;1.35;;
55758;SDS011;41678;52.126;20.664;2023-02-12T07:17:31;10.88;;;2.08;;
55758;SDS011;41678;52.126;20.664;2023-02-12T07:22:50;5.80;;;1.50;;
55758;SDS011;41678;52.126;20.664;2023-02-12T07:28:10;5.25;;;1.73;;
55758;SDS011;41678;52.126;20.664;2023-02-12T07:33:29;2.95;;;1.10;;
55758;SDS011;41678;52.126;20.664;2023-02-12T07:38:49;6.90;;;1.65;;
55758;SDS011;41678;52.126;20.664;2023-02-12T07:44:10;9.40;;;1.58;;
55758;SDS011;41678;52.126;20.664;2023-02-12T07:49:30;3.67;;;1.35;;
55758;SDS011;41678;52.126;20.664;2023-02-12T07:54:50;3.17;;;1.20;;
55758;SDS011;41678;52.126;20.664;2023-02-12T08:00:10;6.45;;;1.75;;
55758;SDS011;41678;52.126;20.664;2023-02-12T08:05:33;6.47;;;1.65;;
55758;SDS011;41678;52.126;20.664;2023-02-12T08:10:54;5.07;;;1.52;;
55758;SDS011;41678;52.126;20.664;2023-02-12T08:16:15;6.40;;;1.67;;
55758;SDS011;41678;52.126;20.664;2023-02-12T08:21:36;6.93;;;2.38;;
55758;SDS011;41678;52.126;20.664;2023-02-12T08:26:56;9.68;;;3.30;;
55758;SDS011;41678;52.126;20.664;2023-02-12T08:32:16;10.18;;;2.40;;
55758;SDS011;41678;52.126;20.664;2023-02-12T08:37:36;9.05;;;2.20;;
55758;SDS011;41678;52.126;20.664;2023-02-12T08:42:55;6.00;;;2.45;;
55758;SDS011;41678;52.126;20.664;2023-02-12T08:48:14;5.28;;;2.40;;
55758;SDS011;41678;52.126;20.664;2023-02-12T08:53:34;10.90;;;4.00;;
55758;SDS011;41678;52.126;20.664;2023-02-12T08:58:55;9.70;;;3.15;;
55758;SDS011;41678;52.126;20.664;2023-02-12T09:04:16;10.30;;;4.13;;
55758;SDS011;41678;52.126;20.664;2023-02-12T09:09:38;11.15;;;2.50;;
55758;SDS011;41678;52.126;20.664;2023-02-12T09:14:57;7.57;;;2.85;;
55758;SDS011;41678;52.126;20.664;2023-02-12T09:20:18;6.88;;;2.80;;
55758;SDS011;41678;52.126;20.664;2023-02-12T09:25:42;9.00;;;3.17;;
55758;SDS011;41678;52.126;20.664;2023-02-12T09:31:06;3.85;;;1.75;;
55758;SDS011;41678;52.126;20.664;2023-02-12T09:36:30;7.60;;;2.78;;
55758;SDS011;41678;52.126;20.664;2023-02-12T09:47:38;6.55;;;2.85;;
55758;SDS011;41678;52.126;20.664;2023-02-12T09:53:03;3.38;;;1.27;;
55758;SDS011;41678;52.126;20.664;2023-02-12T10:04:10;20.92;;;4.38;;
55758;SDS011;41678;52.126;20.664;2023-02-12T10:26:39;15.77;;;4.05;;
55758;SDS011;41678;52.126;20.664;2023-02-12T10:32:10;10.00;;;2.85;;
55758;SDS011;41678;52.126;20.664;2023-02-12T10:38:06;5.63;;;2.42;;
55758;SDS011;41678;52.126;20.664;2023-02-12T10:43:32;4.00;;;1.63;;
55758;SDS011;41678;52.126;20.664;2023-02-12T10:48:52;3.10;;;1.23;;
55758;SDS011;41678;52.126;20.664;2023-02-12T10:54:36;6.20;;;2.83;;
55758;SDS011;41678;52.126;20.664;2023-02-12T11:00:13;6.05;;;2.03;;
55758;SDS011;41678;52.126;20.664;2023-02-12T11:05:54;7.20;;;2.80;;
55758;SDS011;41678;52.126;20.664;2023-02-12T11:11:24;5.95;;;2.03;;
55758;SDS011;41678;52.126;20.664;2023-02-12T11:16:56;6.63;;;1.95;;
55758;SDS011;41678;52.126;20.664;2023-02-12T11:22:18;6.78;;;2.88;;
55758;SDS011;41678;52.126;20.664;2023-02-12T11:27:37;6.03;;;2.00;;
55758;SDS011;41678;52.126;20.664;2023-02-12T11:33:12;7.45;;;1.33;;
55758;SDS011;41678;52.126;20.664;2023-02-12T11:38:38;5.28;;;2.10;;
55758;SDS011;41678;52.126;20.664;2023-02-12T11:49:31;4.40;;;1.83;;
55758;SDS011;41678;52.126;20.664;2023-02-12T11:54:53;2.20;;;0.90;;
55758;SDS011;41678;52.126;20.664;2023-02-12T12:00:24;6.38;;;2.08;;
55758;SDS011;41678;52.126;20.664;2023-02-12T12:06:00;10.75;;;2.72;;
55758;SDS011;41678;52.126;20.664;2023-02-12T12:17:13;4.57;;;2.03;;
55758;SDS011;41678;52.126;20.664;2023-02-12T12:28:31;3.63;;;1.27;;
55758;SDS011;41678;52.126;20.664;2023-02-12T12:34:16;14.10;;;2.70;;
55758;SDS011;41678;52.126;20.664;2023-02-12T12:45:39;8.30;;;3.15;;
55758;SDS011;41678;52.126;20.664;2023-02-12T13:02:34;11.18;;;3.90;;
55758;SDS011;41678;52.126;20.664;2023-02-12T13:31:03;18.10;;;5.78;;
55758;SDS011;41678;52.126;20.664;2023-02-12T13:36:27;9.35;;;4.20;;
55758;SDS011;41678;52.126;20.664;2023-02-12T13:41:50;13.40;;;3.65;;
55758;SDS011;41678;52.126;20.664;2023-02-12T13:47:47;10.10;;;3.88;;
55758;SDS011;41678;52.126;20.664;2023-02-12T13:53:22;7.47;;;2.92;;
55758;SDS011;41678;52.126;20.664;2023-02-12T13:59:02;7.13;;;3.47;;
55758;SDS011;41678;52.126;20.664;2023-02-12T14:04:25;5.70;;;2.60;;
55758;SDS011;41678;52.126;20.664;2023-02-12T14:10:05;16.60;;;4.28;;
55758;SDS011;41678;52.126;20.664;2023-02-12T14:15:32;8.95;;;4.00;;
55758;SDS011;41678;52.126;20.664;2023-02-12T14:21:37;13.77;;;4.20;;
55758;SDS011;41678;52.126;20.664;2023-02-12T14:26:46;13.75;;;4.60;;
55758;SDS011;41678;52.126;20.664;2023-02-12T14:32:40;12.55;;;4.88;;
55758;SDS011;41678;52.126;20.664;2023-02-12T14:43:34;16.27;;;6.97;;
55758;SDS011;41678;52.126;20.664;2023-02-12T15:05:38;18.98;;;8.30;;
55758;SDS011;41678;52.126;20.664;2023-02-12T15:11:23;19.15;;;7.20;;
55758;SDS011;41678;52.126;20.664;2023-02-12T15:16:55;19.67;;;8.55;;
55758;SDS011;41678;52.126;20.664;2023-02-12T15:22:32;22.25;;;9.50;;
55758;SDS011;41678;52.126;20.664;2023-02-12T15:27:59;27.35;;;10.52;;
55758;SDS011;41678;52.126;20.664;2023-02-12T15:33:30;25.27;;;8.98;;
55758;SDS011;41678;52.126;20.664;2023-02-12T15:38:56;21.42;;;8.35;;
55758;SDS011;41678;52.126;20.664;2023-02-12T15:49:42;25.05;;;10.52;;
55758;SDS011;41678;52.126;20.664;2023-02-12T15:55:03;28.67;;;11.50;;
55758;SDS011;41678;52.126;20.664;2023-02-12T16:00:28;18.00;;;8.85;;
55758;SDS011;41678;52.126;20.664;2023-02-12T16:05:55;20.13;;;7.53;;
55758;SDS011;41678;52.126;20.664;2023-02-12T16:11:20;21.15;;;8.80;;
55758;SDS011;41678;52.126;20.664;2023-02-12T16:28:37;15.70;;;6.50;;
55758;SDS011;41678;52.126;20.664;2023-02-12T16:33:57;20.35;;;7.50;;
55758;SDS011;41678;52.126;20.664;2023-02-12T16:45:31;19.23;;;9.02;;
55758;SDS011;41678;52.126;20.664;2023-02-12T16:50:53;30.15;;;10.43;;
55758;SDS011;41678;52.126;20.664;2023-02-12T16:56:16;34.10;;;12.48;;
55758;SDS011;41678;52.126;20.664;2023-02-12T17:01:36;30.63;;;12.73;;
55758;SDS011;41678;52.126;20.664;2023-02-12T17:06:56;38.30;;;15.48;;
55758;SDS011;41678;52.126;20.664;2023-02-12T17:12:16;41.38;;;13.40;;
55758;SDS011;41678;52.126;20.664;2023-02-12T17:17:36;42.22;;;14.75;;
55758;SDS011;41678;52.126;20.664;2023-02-12T17:22:55;46.85;;;15.93;;
55758;SDS011;41678;52.126;20.664;2023-02-12T17:38:44;35.83;;;14.13;;
55758;SDS011;41678;52.126;20.664;2023-02-12T17:44:04;38.75;;;15.77;;
55758;SDS011;41678;52.126;20.664;2023-02-12T17:49:24;48.58;;;16.20;;
55758;SDS011;41678;52.126;20.664;2023-02-12T17:54:43;33.25;;;14.55;;
55758;SDS011;41678;52.126;20.664;2023-02-12T18:00:05;40.05;;;13.73;;
55758;SDS011;41678;52.126;20.664;2023-02-12T18:05:29;32.67;;;13.07;;
55758;SDS011;41678;52.126;20.664;2023-02-12T18:10:49;37.63;;;14.60;;
55758;SDS011;41678;52.126;20.664;2023-02-12T18:16:09;29.13;;;12.48;;
55758;SDS011;41678;52.126;20.664;2023-02-12T18:21:29;29.05;;;10.80;;
55758;SDS011;41678;52.126;20.664;2023-02-12T18:26:48;21.55;;;9.60;;
55758;SDS011;41678;52.126;20.664;2023-02-12T18:32:08;25.65;;;9.95;;
55758;SDS011;41678;52.126;20.664;2023-02-12T18:37:34;23.63;;;10.55;;
55758;SDS011;41678;52.126;20.664;2023-02-12T18:42:54;27.88;;;10.20;;
55758;SDS011;41678;52.126;20.664;2023-02-12T18:48:13;29.25;;;9.93;;
55758;SDS011;41678;52.126;20.664;2023-02-12T18:53:32;26.45;;;10.82;;
55758;SDS011;41678;52.126;20.664;2023-02-12T19:06:31;26.38;;;9.40;;
55758;SDS011;41678;52.126;20.664;2023-02-12T19:11:53;25.27;;;9.50;;
55758;SDS011;41678;52.126;20.664;2023-02-12T19:17:13;27.02;;;10.68;;
55758;SDS011;41678;52.126;20.664;2023-02-12T19:22:33;30.17;;;10.00;;
55758;SDS011;41678;52.126;20.664;2023-02-12T19:27:52;35.00;;;12.25;;
55758;SDS011;41678;52.126;20.664;2023-02-12T19:33:12;34.47;;;12.15;;
55758;SDS011;41678;52.126;20.664;2023-02-12T19:38:32;38.28;;;10.73;;
55758;SDS011;41678;52.126;20.664;2023-02-12T19:43:54;41.42;;;14.75;;
55758;SDS011;41678;52.126;20.664;2023-02-12T19:49:22;26.80;;;10.45;;
55758;SDS011;41678;52.126;20.664;2023-02-12T19:54:43;21.10;;;9.23;;
55758;SDS011;41678;52.126;20.664;2023-02-12T20:00:03;27.40;;;8.38;;
55758;SDS011;41678;52.126;20.664;2023-02-12T20:05:24;27.25;;;10.20;;
55758;SDS011;41678;52.126;20.664;2023-02-12T20:10:44;35.03;;;10.68;;
55758;SDS011;41678;52.126;20.664;2023-02-12T20:16:13;21.40;;;9.65;;
55758;SDS011;41678;52.126;20.664;2023-02-12T20:21:35;42.63;;;12.77;;
55758;SDS011;41678;52.126;20.664;2023-02-12T20:26:56;27.90;;;11.40;;
55758;SDS011;41678;52.126;20.664;2023-02-12T20:32:17;40.22;;;13.07;;
55758;SDS011;41678;52.126;20.664;2023-02-12T20:37:37;37.40;;;13.80;;
55758;SDS011;41678;52.126;20.664;2023-02-12T20:42:59;36.47;;;13.32;;
55758;SDS011;41678;52.126;20.664;2023-02-12T20:48:18;33.53;;;13.73;;
55758;SDS011;41678;52.126;20.664;2023-02-12T20:53:40;31.75;;;13.57;;
55758;SDS011;41678;52.126;20.664;2023-02-12T20:59:01;33.90;;;13.90;;
55758;SDS011;41678;52.126;20.664;2023-02-12T21:12:08;32.88;;;13.02;;
55758;SDS011;41678;52.126;20.664;2023-02-12T21:17:28;39.70;;;12.45;;
55758;SDS011;41678;52.126;20.664;2023-02-12T21:22:48;51.60;;;15.38;;
55758;SDS011;41678;52.126;20.664;2023-02-12T21:28:07;46.45;;;14.05;;
55758;SDS011;41678;52.126;20.664;2023-02-12T21:33:26;54.10;;;15.52;;
55758;SDS011;41678;52.126;20.664;2023-02-12T21:38:46;37.78;;;11.32;;
55758;SDS011;41678;52.126;20.664;2023-02-12T21:44:10;38.30;;;13.70;;
55758;SDS011;41678;52.126;20.664;2023-02-12T21:49:32;31.90;;;12.52;;
55758;SDS011;41678;52.126;20.664;2023-02-12T21:54:52;36.78;;;13.07;;
55758;SDS011;41678;52.126;20.664;2023-02-12T22:00:14;39.53;;;12.85;;
55758;SDS011;41678;52.126;20.664;2023-02-12T22:05:34;37.97;;;14.60;;
55758;SDS011;41678;52.126;20.664;2023-02-12T22:10:54;40.70;;;14.50;;
55758;SDS011;41678;52.126;20.664;2023-02-12T22:16:14;38.03;;;15.02;;
55758;SDS011;41678;52.126;20.664;2023-02-12T22:21:39;42.10;;;14.63;;
55758;SDS011;41678;52.126;20.664;2023-02-12T22:27:00;36.63;;;13.35;;
55758;SDS011;41678;52.126;20.664;2023-02-12T22:32:20;36.58;;;10.43;;
55758;SDS011;41678;52.126;20.664;2023-02-12T22:37:39;28.88;;;10.82;;
55758;SDS011;41678;52.126;20.664;2023-02-12T22:42:59;20.48;;;9.75;;
55758;SDS011;41678;52.126;20.664;2023-02-12T22:48:18;30.08;;;8.77;;
55758;SDS011;41678;52.126;20.664;2023-02-12T23:01:16;21.75;;;8.88;;
55758;SDS011;41678;52.126;20.664;2023-02-12T23:06:36;36.13;;;10.07;;
55758;SDS011;41678;52.126;20.664;2023-02-12T23:11:56;28.92;;;8.52;;
55758;SDS011;41678;52.126;20.664;2023-02-12T23:17:15;21.25;;;7.75;;
55758;SDS011;41678;52.126;20.664;2023-02-12T23:22:35;22.88;;;8.50;;
55758;SDS011;41678;52.126;20.664;2023-02-12T23:27:54;20.50;;;6.93;;
55758;SDS011;41678;52.126;20.664;2023-02-12T23:33:13;20.33;;;5.85;;
55758;SDS011;41678;52.126;20.664;2023-02-12T23:38:33;65.65;;;13.13;;
55758;SDS011;41678;52.126;20.664;2023-02-12T23:43:53;37.08;;;10.52;;
55758;SDS011;41678;52.126;20.664;2023-02-12T23:49:12;36.90;;;11.50;;
55758;SDS011;41678;52.126;20.664;2023-02-12T23:54:32;22.00;;;8.82;;
55758;SDS011;41678;52.126;20.664;2023-02-12T23:59:51;21.98;;;8.52;;
